createdAt,value
2023-01-22T00:01:32.110Z,37.22
2023-01-22T00:04:00.978Z,36.35
2023-01-22T00:06:29.403Z,39.35
2023-01-22T00:08:57.781Z,37.53
2023-01-22T00:11:26.099Z,34.75
2023-01-22T00:13:54.473Z,40.72
2023-01-22T00:16:22.866Z,40.78
2023-01-22T00:18:52.649Z,36.38
2023-01-22T00:21:21.097Z,37.58
2023-01-22T00:23:49.503Z,35.58
2023-01-22T00:26:20.758Z,32.58
2023-01-22T00:28:49.204Z,36.22
2023-01-22T00:31:18.135Z,31.77
2023-01-22T00:33:47.676Z,35.25
2023-01-22T00:36:20.207Z,39.35
2023-01-22T00:38:50.164Z,39.70
2023-01-22T00:41:20.193Z,37.60
2023-01-22T00:43:51.143Z,34.83
2023-01-22T00:46:21.242Z,35.33
2023-01-22T00:48:50.980Z,34.10
2023-01-22T00:51:21.291Z,36.28
2023-01-22T00:53:49.744Z,35.97
2023-01-22T00:56:18.330Z,36.58
2023-01-22T00:58:46.828Z,37.67
2023-01-22T01:01:16.445Z,34.80
2023-01-22T01:03:45.008Z,36.38
2023-01-22T01:06:16.356Z,34.97
2023-01-22T01:08:46.902Z,32.90
2023-01-22T01:11:18.289Z,35.30
2023-01-22T01:13:46.758Z,31.05
2023-01-22T01:16:17.103Z,36.45
2023-01-22T01:18:47.027Z,33.83
2023-01-22T01:21:15.700Z,36.58
2023-01-22T01:23:44.147Z,32.88
2023-01-22T01:26:16.322Z,34.10
2023-01-22T01:28:46.319Z,32.38
2023-01-22T01:31:17.716Z,30.88
2023-01-22T01:33:46.406Z,34.65
2023-01-22T01:36:18.280Z,32.53
2023-01-22T01:38:48.590Z,29.65
2023-01-22T01:41:21.207Z,32.75
2023-01-22T01:44:08.440Z,32.65
2023-01-22T01:46:39.308Z,36.05
2023-01-22T01:49:17.050Z,34.35
2023-01-22T01:51:45.772Z,35.13
2023-01-22T01:54:15.468Z,30.27
2023-01-22T01:56:49.360Z,36.58
2023-01-22T01:59:19.442Z,36.03
2023-01-22T02:01:50.867Z,38.97
2023-01-22T02:04:20.495Z,37.83
2023-01-22T02:06:48.999Z,37.25
2023-01-22T02:09:17.538Z,40.38
2023-01-22T02:11:47.503Z,35.33
2023-01-22T02:14:19.359Z,38.92
2023-01-22T02:16:47.783Z,36.10
2023-01-22T02:19:16.202Z,36.53
2023-01-22T02:21:48.699Z,30.17
2023-01-22T02:24:18.473Z,34.38
2023-01-22T02:26:46.959Z,36.15
2023-01-22T02:29:19.409Z,32.00
2023-01-22T02:31:49.233Z,29.80
2023-01-22T02:34:17.697Z,33.22
2023-01-22T02:36:49.423Z,32.53
2023-01-22T02:39:19.005Z,32.75
2023-01-22T02:41:47.584Z,32.17
2023-01-22T02:44:16.889Z,32.65
2023-01-22T02:46:46.534Z,36.53
2023-01-22T02:49:15.379Z,29.55
2023-01-22T02:51:43.765Z,32.17
2023-01-22T02:54:14.391Z,29.35
2023-01-22T02:56:42.996Z,33.20
2023-01-22T02:59:11.588Z,31.75
2023-01-22T03:01:39.984Z,30.20
2023-01-22T03:04:11.608Z,37.40
2023-01-22T03:06:42.953Z,39.35
2023-01-22T03:09:14.868Z,33.88
2023-01-22T03:11:45.197Z,29.48
2023-01-22T03:14:41.201Z,30.85
2023-01-22T03:17:28.634Z,29.17
2023-01-22T03:20:14.779Z,30.90
2023-01-22T03:22:43.283Z,33.35
2023-01-22T03:25:13.059Z,27.90
2023-01-22T03:28:02.417Z,27.10
2023-01-22T03:30:31.827Z,30.45
2023-01-22T03:33:00.312Z,33.92
2023-01-22T03:35:28.719Z,29.92
2023-01-22T03:38:06.531Z,31.33
2023-01-22T03:40:37.369Z,31.08
2023-01-22T03:43:05.860Z,31.92
2023-01-22T03:45:35.167Z,31.17
2023-01-22T03:48:05.866Z,31.40
2023-01-22T03:50:39.029Z,31.98
2023-01-22T03:53:07.631Z,29.05
2023-01-22T03:55:37.404Z,30.50
2023-01-22T03:58:06.123Z,34.78
2023-01-22T04:00:35.433Z,32.40
2023-01-22T04:03:06.989Z,33.67
2023-01-22T04:05:40.083Z,28.02
2023-01-22T04:08:08.616Z,30.92
2023-01-22T04:10:41.804Z,29.80
2023-01-22T04:13:10.320Z,28.48
2023-01-22T04:15:43.618Z,34.05
2023-01-22T04:18:19.437Z,25.42
2023-01-22T04:21:03.238Z,29.77
2023-01-22T04:23:39.069Z,31.88
2023-01-22T04:26:08.906Z,30.13
2023-01-22T04:28:37.318Z,30.80
2023-01-22T04:31:08.618Z,29.50
2023-01-22T04:33:42.971Z,28.42
2023-01-22T04:36:17.981Z,32.13
2023-01-22T04:38:46.593Z,28.30
2023-01-22T04:41:16.332Z,30.30
2023-01-22T04:43:45.001Z,34.45
2023-01-22T04:46:14.198Z,39.17
2023-01-22T04:48:43.505Z,32.13
2023-01-22T04:51:12.371Z,33.80
2023-01-22T04:53:40.932Z,31.80
2023-01-22T04:56:09.883Z,33.05
2023-01-22T04:58:39.654Z,32.38
2023-01-22T05:01:08.255Z,32.40
2023-01-22T05:03:36.629Z,29.05
2023-01-22T05:06:07.773Z,31.63
2023-01-22T05:08:37.811Z,30.20
2023-01-22T05:11:06.905Z,33.38
2023-01-22T05:13:59.249Z,30.95
2023-01-22T05:16:27.835Z,32.42
2023-01-22T05:18:56.183Z,29.23
2023-01-22T05:21:25.765Z,29.80
2023-01-22T05:23:54.121Z,27.95
2023-01-22T05:26:23.544Z,26.35
2023-01-22T05:29:06.853Z,27.83
2023-01-22T05:31:46.600Z,31.98
2023-01-22T05:34:31.940Z,28.92
2023-01-22T05:37:00.855Z,28.48
2023-01-22T05:39:31.876Z,39.20
2023-01-22T05:42:02.206Z,31.38
2023-01-22T05:44:33.566Z,32.72
2023-01-22T05:47:02.964Z,31.10
2023-01-22T05:49:35.533Z,29.25
2023-01-22T05:52:04.734Z,31.92
2023-01-22T05:54:34.702Z,30.00
2023-01-22T05:57:04.676Z,28.42
2023-01-22T05:59:34.626Z,30.67
2023-01-22T06:02:06.184Z,31.00
2023-01-22T06:04:37.454Z,34.92
2023-01-22T06:07:15.263Z,32.90
2023-01-22T06:09:43.829Z,26.10
2023-01-22T06:12:12.230Z,28.88
2023-01-22T06:14:43.947Z,28.00
2023-01-22T06:17:14.980Z,32.78
2023-01-22T06:22:19.761Z,27.13
2023-01-22T06:24:53.063Z,28.27
2023-01-22T06:27:23.945Z,30.58
2023-01-22T06:30:01.351Z,34.58
2023-01-22T06:32:30.148Z,29.10
2023-01-22T06:35:00.436Z,30.05
2023-01-22T06:37:30.052Z,29.23
2023-01-22T06:40:01.803Z,29.50
2023-01-22T06:42:43.477Z,27.45
2023-01-22T06:45:16.789Z,28.77
2023-01-22T06:47:53.188Z,26.85
2023-01-22T06:50:21.656Z,28.25
2023-01-22T06:52:50.793Z,28.00
2023-01-22T06:55:20.858Z,26.60
2023-01-22T06:57:49.518Z,29.90
2023-01-22T07:00:20.843Z,29.60
2023-01-22T07:02:49.538Z,26.77
2023-01-22T07:05:20.411Z,27.90
2023-01-22T07:07:49.218Z,26.58
2023-01-22T07:10:18.055Z,30.17
2023-01-22T07:12:46.601Z,30.52
2023-01-22T07:15:15.388Z,29.83
2023-01-22T07:17:53.493Z,26.45
2023-01-22T07:20:23.410Z,29.40
2023-01-22T07:22:55.431Z,31.15
2023-01-22T07:25:23.930Z,31.00
2023-01-22T07:27:52.411Z,26.50
2023-01-22T07:30:21.180Z,31.25
2023-01-22T07:32:49.684Z,29.13
2023-01-22T07:35:20.908Z,26.90
2023-01-22T07:37:52.874Z,27.25
2023-01-22T07:40:24.134Z,28.65
2023-01-22T07:42:53.222Z,31.58
2023-01-22T07:45:23.384Z,28.50
2023-01-22T07:47:52.482Z,31.52
2023-01-22T07:50:22.906Z,28.83
2023-01-22T07:52:51.798Z,29.27
2023-01-22T07:55:22.636Z,24.75
2023-01-22T07:57:59.779Z,32.28
2023-01-22T08:00:28.263Z,29.02
2023-01-22T08:02:58.412Z,28.65
2023-01-22T08:05:33.840Z,30.13
2023-01-22T08:08:02.463Z,36.20
2023-01-22T08:10:30.860Z,30.45
2023-01-22T08:12:59.254Z,29.85
2023-01-22T08:15:27.668Z,26.23
2023-01-22T08:17:56.067Z,29.42
2023-01-22T08:20:24.546Z,26.83
2023-01-22T08:22:58.772Z,25.95
2023-01-22T08:25:29.920Z,29.23
2023-01-22T08:28:02.029Z,32.20
2023-01-22T08:30:30.496Z,29.50
2023-01-22T08:32:58.933Z,29.45
2023-01-22T08:35:29.732Z,27.52
2023-01-22T08:38:00.771Z,32.28
2023-01-22T08:40:29.605Z,29.15
2023-01-22T08:42:57.931Z,27.40
2023-01-22T08:45:26.400Z,24.38
2023-01-22T08:47:59.619Z,27.17
2023-01-22T08:50:29.054Z,25.30
2023-01-22T08:52:57.957Z,23.85
2023-01-22T08:55:27.892Z,26.90
2023-01-22T08:57:56.789Z,29.90
2023-01-22T09:00:38.432Z,25.15
2023-01-22T09:03:06.970Z,25.30
2023-01-22T09:05:35.580Z,24.83
2023-01-22T09:08:04.018Z,25.10
2023-01-22T09:10:33.772Z,24.70
2023-01-22T09:13:02.239Z,26.42
2023-01-22T09:15:30.839Z,21.08
2023-01-22T09:18:00.062Z,25.88
2023-01-22T09:20:28.778Z,23.55
2023-01-22T09:22:57.195Z,27.27
2023-01-22T09:25:26.200Z,24.00
2023-01-22T09:28:04.857Z,29.02
2023-01-22T09:30:33.397Z,28.13
2023-01-22T09:33:02.018Z,28.13
2023-01-22T09:35:30.539Z,25.67
2023-01-22T09:37:58.986Z,27.20
2023-01-22T09:40:29.554Z,23.15
2023-01-22T09:43:05.604Z,23.08
2023-01-22T09:45:37.953Z,23.85
2023-01-22T09:48:12.557Z,23.63
2023-01-22T09:50:42.460Z,22.42
2023-01-22T09:53:16.145Z,25.70
2023-01-22T09:55:48.298Z,21.15
2023-01-22T09:58:20.485Z,24.20
2023-01-22T10:00:52.760Z,25.00
2023-01-22T10:03:27.579Z,24.20
2023-01-22T10:06:00.104Z,26.27
2023-01-22T10:08:34.145Z,26.48
2023-01-22T10:11:02.915Z,24.48
2023-01-22T10:13:34.608Z,22.15
2023-01-22T10:16:03.445Z,26.85
2023-01-22T10:18:37.658Z,27.65
2023-01-22T10:21:12.062Z,29.90
2023-01-22T10:23:40.584Z,23.10
2023-01-22T10:26:16.396Z,28.02
2023-01-22T10:28:48.750Z,25.70
2023-01-22T10:31:29.441Z,25.40
2023-01-22T10:33:59.566Z,24.65
2023-01-22T10:36:28.821Z,24.05
2023-01-22T10:39:06.014Z,25.25
2023-01-22T10:41:34.610Z,25.90
2023-01-22T10:44:18.680Z,27.88
2023-01-22T10:46:49.570Z,25.30
2023-01-22T10:49:21.437Z,29.67
2023-01-22T10:51:55.422Z,24.10
2023-01-22T10:54:30.697Z,30.20
2023-01-22T10:57:07.842Z,27.95
2023-01-22T10:59:38.331Z,25.52
2023-01-22T11:02:18.690Z,25.38
2023-01-22T11:04:47.121Z,24.35
2023-01-22T11:07:19.896Z,25.15
2023-01-22T11:09:54.131Z,27.40
2023-01-22T11:12:27.122Z,25.65
2023-01-22T11:15:04.742Z,27.60
2023-01-22T11:17:38.637Z,25.85
2023-01-22T11:20:17.870Z,27.95
2023-01-22T11:22:50.955Z,26.63
2023-01-22T11:25:19.816Z,27.95
2023-01-22T11:28:12.256Z,28.70
2023-01-22T11:31:03.560Z,30.23
2023-01-22T11:33:45.555Z,24.23
2023-01-22T11:36:20.598Z,24.33
2023-01-22T11:38:54.297Z,26.98
2023-01-22T11:41:33.657Z,31.48
2023-01-22T11:44:55.777Z,24.40
2023-01-22T11:47:50.741Z,26.45
2023-01-22T11:50:27.741Z,25.65
2023-01-22T11:53:14.593Z,25.42
2023-01-22T11:56:06.535Z,27.00
2023-01-22T11:58:42.874Z,25.52
2023-01-22T12:01:24.766Z,29.50
2023-01-22T12:04:13.827Z,27.52
2023-01-22T12:07:14.693Z,26.20
2023-01-22T12:09:51.869Z,28.52
2023-01-22T12:12:32.541Z,27.42
2023-01-22T12:15:17.204Z,26.90
2023-01-22T12:18:00.496Z,26.90
2023-01-22T12:21:01.071Z,26.73
2023-01-22T12:23:34.713Z,27.50
2023-01-22T12:26:07.639Z,23.48
2023-01-22T12:28:43.900Z,27.95
2023-01-22T12:31:18.242Z,23.67
2023-01-22T12:33:46.801Z,24.45
2023-01-22T12:36:22.894Z,28.83
2023-01-22T12:38:55.509Z,25.35
2023-01-22T12:41:51.424Z,21.30
2023-01-22T12:44:33.693Z,24.08
2023-01-22T12:47:11.675Z,25.27
2023-01-22T12:49:48.441Z,25.42
2023-01-22T12:52:33.360Z,22.85
2023-01-22T12:55:06.521Z,24.65
2023-01-22T12:57:40.080Z,25.38
2023-01-22T13:00:23.677Z,21.70
2023-01-22T13:02:55.387Z,24.73
2023-01-22T13:05:49.844Z,25.02
2023-01-22T13:08:35.433Z,25.63
2023-01-22T13:11:06.353Z,26.25
2023-01-22T13:13:44.579Z,32.30
2023-01-22T13:16:24.133Z,26.25
2023-01-22T13:18:54.624Z,31.73
2023-01-22T13:21:31.280Z,27.05
2023-01-22T13:24:03.692Z,26.98
2023-01-22T13:26:34.210Z,30.67
2023-01-22T13:29:05.582Z,25.38
2023-01-22T13:31:34.712Z,23.33
2023-01-22T13:34:08.762Z,32.78
2023-01-22T13:36:39.521Z,32.05
2023-01-22T13:39:18.789Z,30.38
2023-01-22T13:41:51.470Z,32.03
2023-01-22T13:44:22.296Z,30.08
2023-01-22T13:46:52.200Z,28.75
2023-01-22T13:49:24.930Z,30.65
2023-01-22T13:51:54.084Z,31.67
2023-01-22T13:54:30.172Z,29.60
2023-01-22T13:56:58.943Z,35.63
2023-01-22T13:59:34.840Z,35.90
2023-01-22T14:02:23.520Z,30.10
2023-01-22T14:04:52.090Z,27.75
2023-01-22T14:07:28.985Z,30.20
2023-01-22T14:10:11.527Z,29.92
2023-01-22T14:12:40.049Z,27.50
2023-01-22T14:15:15.589Z,28.45
2023-01-22T14:17:44.012Z,27.80
2023-01-22T14:20:13.571Z,27.90
2023-01-22T14:22:41.966Z,30.40
2023-01-22T14:25:12.099Z,26.67
2023-01-22T14:27:43.191Z,25.38
2023-01-22T14:30:14.729Z,31.13
2023-01-22T14:32:43.776Z,29.48
2023-01-22T14:35:17.283Z,30.13
2023-01-22T14:37:46.346Z,29.02
2023-01-22T14:40:17.903Z,30.02
2023-01-22T14:42:46.835Z,34.55
2023-01-22T14:45:16.984Z,28.33
2023-01-22T14:47:45.904Z,33.33
2023-01-22T14:50:16.127Z,25.88
2023-01-22T14:52:44.685Z,32.83
2023-01-22T14:55:13.355Z,28.73
2023-01-22T14:57:43.205Z,26.58
2023-01-22T15:00:14.271Z,30.08
2023-01-22T15:02:42.813Z,33.83
2023-01-22T15:05:12.551Z,31.80
2023-01-22T15:07:43.189Z,26.20
2023-01-22T15:10:12.795Z,28.60
2023-01-22T15:12:41.305Z,25.95
2023-01-22T15:15:12.266Z,30.98
2023-01-22T15:17:40.687Z,27.65
2023-01-22T15:20:10.713Z,29.98
2023-01-22T15:22:39.091Z,26.98
2023-01-22T15:25:08.563Z,26.05
2023-01-22T15:27:36.931Z,33.67
2023-01-22T15:30:06.281Z,34.83
2023-01-22T15:32:36.027Z,34.80
2023-01-22T15:35:04.673Z,39.38
2023-01-22T15:37:33.056Z,34.90
2023-01-22T15:40:02.136Z,36.45
2023-01-22T15:42:30.512Z,33.83
2023-01-22T15:44:58.854Z,35.22
2023-01-22T15:47:27.214Z,35.25
2023-01-22T15:49:56.976Z,33.60
2023-01-22T15:52:25.510Z,33.88
2023-01-22T15:54:54.559Z,36.80
2023-01-22T15:57:22.975Z,36.97
2023-01-22T15:59:51.495Z,38.55
2023-01-22T16:02:19.949Z,34.47
2023-01-22T16:04:48.381Z,38.40
2023-01-22T16:07:18.193Z,39.60
2023-01-22T16:09:46.601Z,35.05
2023-01-22T16:12:15.200Z,35.83
2023-01-22T16:14:43.551Z,45.35
2023-01-22T16:17:12.366Z,34.03
2023-01-22T16:19:40.855Z,38.05
2023-01-22T16:22:09.277Z,43.20
2023-01-22T16:24:39.288Z,39.03
2023-01-22T16:27:07.629Z,38.50
2023-01-22T16:29:36.111Z,36.42
2023-01-22T16:32:05.305Z,44.33
2023-01-22T16:34:33.849Z,36.45
2023-01-22T16:37:02.378Z,43.75
2023-01-22T16:39:33.807Z,37.58
2023-01-22T16:42:03.599Z,43.05
2023-01-22T16:44:33.682Z,39.72
2023-01-22T16:47:02.218Z,34.85
2023-01-22T16:49:34.340Z,34.90
2023-01-22T16:52:21.395Z,42.10
2023-01-22T16:54:50.906Z,41.72
2023-01-22T16:57:20.702Z,38.38
2023-01-22T16:59:49.787Z,46.38
2023-01-22T17:02:19.006Z,40.20
2023-01-22T17:04:47.542Z,36.67
2023-01-22T17:07:31.889Z,40.40
2023-01-22T17:10:02.205Z,37.03
2023-01-22T17:12:32.209Z,48.35
2023-01-22T17:15:02.885Z,43.03
2023-01-22T17:17:32.168Z,46.85
2023-01-22T17:20:00.513Z,49.42
2023-01-22T17:22:29.043Z,46.45
2023-01-22T17:24:57.377Z,43.28
2023-01-22T17:27:25.786Z,43.78
2023-01-22T17:29:55.666Z,47.28
2023-01-22T17:32:24.873Z,44.50
2023-01-22T17:34:53.290Z,46.88
2023-01-22T17:37:21.636Z,41.00
2023-01-22T17:39:52.533Z,46.42
2023-01-22T17:42:21.619Z,47.78
2023-01-22T17:44:50.293Z,45.63
2023-01-22T17:47:19.948Z,47.08
2023-01-22T17:49:49.113Z,44.47
2023-01-22T17:52:20.260Z,41.05
2023-01-22T17:54:49.304Z,45.40
2023-01-22T17:57:18.042Z,45.35
2023-01-22T17:59:46.561Z,47.78
2023-01-22T18:02:15.007Z,44.13
2023-01-22T18:04:44.731Z,41.70
2023-01-22T18:07:13.647Z,41.35
2023-01-22T18:09:42.028Z,40.60
2023-01-22T18:12:10.393Z,48.70
2023-01-22T18:14:40.400Z,45.90
2023-01-22T18:17:09.285Z,48.40
2023-01-22T18:19:37.709Z,47.35
2023-01-22T18:22:07.412Z,41.13
2023-01-22T18:24:36.460Z,49.35
2023-01-22T18:27:04.923Z,37.60
2023-01-22T18:29:33.303Z,48.35
2023-01-22T18:32:01.849Z,39.70
2023-01-22T18:34:30.287Z,38.28
2023-01-22T18:36:58.653Z,46.90
2023-01-22T18:39:28.488Z,43.75
2023-01-22T18:41:56.945Z,39.38
2023-01-22T18:44:27.609Z,43.38
2023-01-22T18:46:58.665Z,42.13
2023-01-22T18:49:28.075Z,38.03
2023-01-22T18:51:59.085Z,42.92
2023-01-22T18:54:30.725Z,45.42
2023-01-22T18:56:59.234Z,36.67
2023-01-22T18:59:27.933Z,42.03
2023-01-22T19:01:57.379Z,42.30
2023-01-22T19:04:27.896Z,43.55
2023-01-22T19:06:57.142Z,41.72
2023-01-22T19:09:26.855Z,42.15
2023-01-22T19:11:56.780Z,38.10
2023-01-22T19:14:25.315Z,44.17
2023-01-22T19:16:54.660Z,47.47
2023-01-22T19:19:23.945Z,44.95
2023-01-22T19:21:54.637Z,41.97
2023-01-22T19:24:26.598Z,44.33
2023-01-22T19:26:57.666Z,52.17
2023-01-22T19:29:26.828Z,42.53
2023-01-22T19:31:56.793Z,51.47
2023-01-22T19:34:27.254Z,43.90
2023-01-22T19:36:58.598Z,42.55
2023-01-22T19:39:29.650Z,50.35
2023-01-22T19:42:01.968Z,47.35
2023-01-22T19:44:34.025Z,51.40
2023-01-22T19:47:02.906Z,46.72
2023-01-22T19:49:31.806Z,43.63
2023-01-22T19:52:00.531Z,43.72
2023-01-22T19:54:29.043Z,40.50
2023-01-22T19:56:58.931Z,45.92
2023-01-22T19:59:27.515Z,47.78
2023-01-22T20:01:57.024Z,45.97
2023-01-22T20:04:29.855Z,48.47
2023-01-22T20:07:00.706Z,42.13
2023-01-22T20:09:30.638Z,44.10
2023-01-22T20:12:01.393Z,47.30
2023-01-22T20:14:31.245Z,47.03
2023-01-22T20:17:00.792Z,51.05
2023-01-22T20:19:30.331Z,59.30
2023-01-22T20:21:59.442Z,47.28
2023-01-22T20:24:28.268Z,56.72
2023-01-22T20:26:58.002Z,58.92
2023-01-22T20:29:27.863Z,47.70
2023-01-22T20:31:59.135Z,52.15
2023-01-22T20:34:27.700Z,55.30
2023-01-22T20:36:56.066Z,50.58
2023-01-22T20:39:24.681Z,43.75
2023-01-22T20:41:56.436Z,55.28
2023-01-22T20:44:25.238Z,45.13
2023-01-22T20:46:57.308Z,52.85
2023-01-22T20:49:25.637Z,51.60
2023-01-22T20:51:54.342Z,40.40
2023-01-22T20:54:22.722Z,49.08
2023-01-22T20:56:51.249Z,48.28
2023-01-22T20:59:19.776Z,52.80
2023-01-22T21:01:48.198Z,50.00
2023-01-22T21:04:19.555Z,54.75
2023-01-22T21:06:48.701Z,46.17
2023-01-22T21:09:17.280Z,42.05
2023-01-22T21:11:45.744Z,44.50
2023-01-22T21:14:17.838Z,45.63
2023-01-22T21:16:46.400Z,56.88
2023-01-22T21:19:21.609Z,54.22
2023-01-22T21:21:51.139Z,53.65
2023-01-22T21:24:19.640Z,45.38
2023-01-22T21:26:48.176Z,46.50
2023-01-22T21:29:18.806Z,47.00
2023-01-22T21:31:48.966Z,52.90
2023-01-22T21:34:21.023Z,54.95
2023-01-22T21:36:53.012Z,47.13
2023-01-22T21:39:23.934Z,53.38
2023-01-22T21:42:12.698Z,43.70
2023-01-22T21:45:01.566Z,42.13
2023-01-22T21:47:31.113Z,58.38
2023-01-22T21:50:01.354Z,46.60
2023-01-22T21:52:29.752Z,48.30
2023-01-22T21:54:59.040Z,57.63
2023-01-22T21:57:27.561Z,52.28
2023-01-22T21:59:56.024Z,50.20
2023-01-22T22:02:24.986Z,62.42
2023-01-22T22:04:53.612Z,54.63
2023-01-22T22:07:23.598Z,51.60
2023-01-22T22:09:52.045Z,53.13
2023-01-22T22:12:20.381Z,59.38
2023-01-22T22:14:48.768Z,53.63
2023-01-22T22:17:17.271Z,57.63
2023-01-22T22:19:45.682Z,54.30
2023-01-22T22:22:14.091Z,51.45
2023-01-22T22:24:43.899Z,61.67
2023-01-22T22:27:12.367Z,57.45
2023-01-22T22:29:40.803Z,52.00
2023-01-22T22:32:09.151Z,49.25
2023-01-22T22:34:37.612Z,56.95
2023-01-22T22:37:06.062Z,58.95
2023-01-22T22:39:34.429Z,59.97
2023-01-22T22:42:04.130Z,57.33
2023-01-22T22:44:32.556Z,48.13
2023-01-22T22:47:00.932Z,51.65
2023-01-22T22:49:29.274Z,57.33
2023-01-22T22:51:57.666Z,48.28
2023-01-22T22:54:26.005Z,53.33
2023-01-22T22:56:54.560Z,48.05
2023-01-22T22:59:24.601Z,56.78
2023-01-22T23:01:53.026Z,50.97
2023-01-22T23:04:21.525Z,49.55
2023-01-22T23:06:49.966Z,49.25
2023-01-22T23:09:21.200Z,45.90
2023-01-22T23:11:51.931Z,51.90
2023-01-22T23:14:20.544Z,50.40
2023-01-22T23:16:50.583Z,52.15
2023-01-22T23:19:20.959Z,49.03
2023-01-22T23:21:52.879Z,51.38
2023-01-22T23:24:21.635Z,53.50
2023-01-22T23:26:50.806Z,55.42
2023-01-22T23:29:21.353Z,47.55
2023-01-22T23:31:51.903Z,53.50
2023-01-22T23:34:22.472Z,52.58
2023-01-22T23:36:51.647Z,50.92
2023-01-22T23:39:21.887Z,52.63
2023-01-22T23:41:50.711Z,62.50
2023-01-22T23:44:19.216Z,49.40
2023-01-22T23:46:47.634Z,56.42
2023-01-22T23:49:17.420Z,49.75
2023-01-22T23:51:45.882Z,47.60
2023-01-22T23:54:14.342Z,50.67
2023-01-22T23:56:42.789Z,48.75
2023-01-22T23:59:11.888Z,53.83
